Time;durP1;ratioP1;P1;durP2;ratioP2;P2;SDS_P1;SDS_P2;PMS_P1;PMS_P2;Temp;Humidity;BMP_temperature;BMP_pressure;BME280_temperature;BME280_humidity;BME280_pressure;Samples;Min_cycle;Max_cycle;Signal;HPM_P1;HPM_P2
2022/01/19 00:01:33;;;;;;;62.60;21.82;;;;;;;0.54;87.17;100660.82;1724076;83;21026;-38
2022/01/19 00:04:00;;;;;;;66.02;22.82;;;;;;;0.56;86.98;100665.58;1724138;83;20975;-38
2022/01/19 00:06:26;;;;;;;60.48;20.97;;;;;;;0.58;87.09;100663.86;1724206;83;21046;-38
2022/01/19 00:08:52;;;;;;;62.43;21.02;;;;;;;0.60;87.05;100662.58;1724069;83;20971;-37
2022/01/19 00:11:19;;;;;;;60.33;21.42;;;;;;;0.58;86.89;100661.27;1724068;83;21014;-38
2022/01/19 00:13:46;;;;;;;63.63;21.52;;;;;;;0.55;86.89;100672.48;1724287;83;21445;-39
2022/01/19 00:16:12;;;;;;;66.77;24.02;;;;;;;0.54;86.85;100662.12;1724164;83;21051;-38
2022/01/19 00:18:38;;;;;;;54.90;21.60;;;;;;;0.54;86.91;100660.82;1724083;83;21011;-38
2022/01/19 00:21:04;;;;;;;74.80;23.47;;;;;;;0.57;86.54;100653.09;1724071;83;21014;-38
2022/01/19 00:23:31;;;;;;;64.17;21.93;;;;;;;0.53;86.50;100645.73;1724194;83;21575;-37
2022/01/19 00:25:57;;;;;;;49.83;19.52;;;;;;;0.51;86.27;100643.96;1724126;83;21023;-38
2022/01/19 00:28:24;;;;;;;52.53;20.57;;;;;;;0.45;86.14;100631.84;1724045;83;21068;-38
2022/01/19 00:30:50;;;;;;;50.67;22.20;;;;;;;0.45;85.95;100627.11;1724380;83;21528;-38
2022/01/19 00:33:19;;;;;;;51.42;20.82;;;;;;;0.43;86.02;100621.05;1724176;83;20975;-38
2022/01/19 00:35:44;;;;;;;51.28;21.65;;;;;;;0.37;86.12;100622.73;1724048;83;21476;-38
2022/01/19 00:38:10;;;;;;;55.48;21.10;;;;;;;0.48;86.11;100627.14;1724108;83;21015;-38
2022/01/19 00:40:38;;;;;;;58.63;22.27;;;;;;;0.44;86.04;100629.24;1724088;83;20979;-38
2022/01/19 00:43:04;;;;;;;52.65;22.10;;;;;;;0.46;86.20;100624.97;1724141;83;21537;-38
2022/01/19 00:45:30;;;;;;;56.50;22.25;;;;;;;0.48;86.09;100624.55;1724034;83;20979;-37
2022/01/19 00:47:56;;;;;;;61.73;22.15;;;;;;;0.46;85.73;100631.44;1717303;83;21032;-37
2022/01/19 00:50:29;;;;;;;54.83;21.60;;;;;;;0.42;85.71;100621.49;1707944;84;21019;-38
2022/01/19 00:52:56;;;;;;;57.00;21.17;;;;;;;0.42;85.98;100621.49;1707968;83;20992;-37
2022/01/19 00:55:25;;;;;;;56.15;19.80;;;;;;;0.50;85.73;100620.25;1708072;83;21839;-37
2022/01/19 00:57:51;;;;;;;53.90;19.67;;;;;;;0.50;85.73;100621.55;1708027;83;20992;-37
2022/01/19 01:00:24;;;;;;;55.52;20.20;;;;;;;0.55;85.70;100623.73;1707992;84;21528;-37
2022/01/19 01:02:50;;;;;;;46.25;20.62;;;;;;;0.59;85.57;100616.42;1708000;84;21012;-37
2022/01/19 01:05:16;;;;;;;46.77;19.52;;;;;;;0.58;85.44;100614.67;1708038;83;21495;-37
2022/01/19 01:07:42;;;;;;;57.80;20.17;;;;;;;0.56;85.47;100611.22;1707982;83;21043;-36
2022/01/19 01:10:12;;;;;;;48.05;18.87;;;;;;;0.60;85.29;100606.93;1707934;84;21051;-36
2022/01/19 01:12:46;;;;;;;51.85;17.55;;;;;;;0.55;85.45;100604.33;1707963;83;21564;-37
2022/01/19 01:15:28;;;;;;;44.80;17.92;;;;;;;0.52;85.35;100599.98;1707220;84;20981;-37
2022/01/19 01:20:32;;;;;;;58.52;17.37;;;;;;;0.59;85.27;100595.72;1707966;83;21027;-37
2022/01/19 01:22:58;;;;;;;40.63;16.12;;;;;;;0.61;85.21;100595.30;1706801;84;21004;-37
2022/01/19 01:25:25;;;;;;;41.35;17.37;;;;;;;0.65;85.04;100579.35;1707920;84;21043;-37
2022/01/19 01:27:50;;;;;;;51.48;17.20;;;;;;;0.67;85.01;100575.91;1708128;84;21011;-37
2022/01/19 01:30:17;;;;;;;41.73;15.18;;;;;;;0.69;84.88;100566.45;1708105;83;20976;-37
2022/01/19 01:32:43;;;;;;;44.70;16.27;;;;;;;0.57;84.56;100548.25;1707893;84;21024;-37
2022/01/19 01:35:09;;;;;;;43.17;15.18;;;;;;;0.70;84.51;100548.74;1707934;83;21059;-37
2022/01/19 01:37:35;;;;;;;35.83;14.00;;;;;;;0.63;84.70;100554.74;1707914;84;21059;-37
2022/01/19 01:40:03;;;;;;;43.05;14.20;;;;;;;0.71;84.65;100546.61;1707945;83;21019;-37
2022/01/19 01:42:29;;;;;;;37.20;13.00;;;;;;;0.71;84.38;100541.83;1707921;83;21560;-37
2022/01/19 01:44:59;;;;;;;37.85;13.20;;;;;;;0.79;84.43;100535.42;1707987;83;21003;-37
2022/01/19 01:47:24;;;;;;;31.17;12.80;;;;;;;0.83;84.28;100530.69;1707524;83;21457;-37
2022/01/19 01:55:18;;;;;;;33.08;12.70;;;;;;;0.84;84.09;100510.42;1708083;84;21011;-38
2022/01/19 01:57:44;;;;;;;41.77;11.83;;;;;;;0.86;83.89;100506.95;1707862;84;21098;-37
2022/01/19 02:00:14;;;;;;;36.20;11.97;;;;;;;0.90;83.96;100494.89;1707876;83;21039;-37
2022/01/19 02:02:40;;;;;;;34.67;12.13;;;;;;;0.88;84.06;100483.66;1707898;83;21027;-37
2022/01/19 02:05:10;;;;;;;42.27;12.50;;;;;;;0.90;84.07;100478.05;1707917;84;21004;-37
2022/01/19 02:08:03;;;;;;;33.20;10.50;;;;;;;0.92;84.08;100482.80;1707869;84;21023;-38
2022/01/19 02:15:51;;;;;;;28.73;12.20;;;;;;;0.86;84.14;100500.92;1707986;84;21070;-37
2022/01/19 02:23:49;;;;;;;26.12;9.98;;;;;;;0.88;84.31;100507.83;1707975;84;21477;-37
2022/01/19 02:26:20;;;;;;;35.90;11.30;;;;;;;0.93;84.36;100501.38;1707344;84;20968;-37
2022/01/19 02:29:04;;;;;;;;;;;;;;;0.91;84.37;100484.54;1709531;84;21019;-37
2022/01/19 02:42:11;;;;;;;27.80;10.78;;;;;;;0.91;84.70;100461.64;1706734;80;21671;-38
2022/01/19 02:49:52;;;;;;;25.65;9.73;;;;;;;1.00;84.58;100445.26;1707046;83;21049;-39
2022/01/19 02:52:21;;;;;;;26.23;9.08;;;;;;;0.98;84.79;100438.78;1706524;83;21085;-38
2022/01/19 02:54:48;;;;;;;24.87;9.03;;;;;;;0.97;84.65;100430.59;1707101;83;20985;-36
2022/01/19 02:57:15;;;;;;;34.97;9.83;;;;;;;0.92;85.08;100428.41;1706746;84;21478;-38
2022/01/19 03:10:33;;;;;;;18.23;8.03;;;;;;;0.95;85.34;100390.88;1706622;83;21450;-39
2022/01/19 03:12:59;;;;;;;21.73;7.10;;;;;;;0.99;85.06;100382.68;1706808;83;21013;-42
2022/01/19 03:15:26;;;;;;;27.17;8.13;;;;;;;0.96;85.32;100373.16;1706591;83;21491;-38
2022/01/19 03:17:56;;;;;;;;;;;;;;;0.99;85.17;100356.78;1709225;83;20986;-38
2022/01/19 03:20:20;;;;;;;21.23;6.78;;;;;;;0.91;85.49;100353.75;1705956;84;20410;-37
2022/01/19 03:23:04;;;;;;;20.50;6.78;;;;;;;0.95;85.55;100354.62;1706525;84;21005;-37
2022/01/19 03:25:28;;;;;;;20.70;6.45;;;;;;;0.92;85.58;100356.75;1706088;83;20974;-37
2022/01/19 03:27:54;;;;;;;18.50;7.25;;;;;;;0.94;85.74;100351.14;1706564;83;21013;-37
2022/01/19 03:30:21;;;;;;;21.75;6.72;;;;;;;1.00;85.67;100351.61;1707824;83;21485;-37
2022/01/19 03:32:47;;;;;;;;;;;;;;;1.00;85.97;100346.83;1709441;83;20997;-37
2022/01/19 03:35:15;;;;;;;18.60;6.55;;;;;;;1.02;85.92;100341.22;1706495;83;20121;-37
2022/01/19 03:37:40;;;;;;;;;;;;;;;0.98;86.09;100335.17;1708967;84;21535;-37
2022/01/19 03:40:08;;;;;;;18.70;6.97;;;;;;;0.96;86.49;100331.72;1706482;83;20119;-37
2022/01/19 03:42:35;;;;;;;18.00;6.70;;;;;;;0.94;86.71;100330.86;1688862;83;21085;-37
2022/01/19 03:45:01;;;;;;;22.67;7.50;;;;;;;0.99;86.63;100325.26;1674810;84;21458;-37
2022/01/19 03:47:27;;;;;;;15.60;6.60;;;;;;;0.98;86.61;100324.81;1674789;84;21044;-37
2022/01/19 03:49:54;;;;;;;18.67;6.47;;;;;;;0.98;86.60;100326.11;1674952;84;21024;-37
2022/01/19 03:52:20;;;;;;;18.25;6.97;;;;;;;0.97;86.73;100323.10;1674757;84;21020;-37
2022/01/19 03:54:46;;;;;;;17.57;6.25;;;;;;;1.06;86.40;100320.52;1674817;84;21051;-37
2022/01/19 03:57:12;;;;;;;19.05;6.80;;;;;;;1.09;86.27;100313.16;1674696;84;21516;-36
2022/01/19 03:59:39;;;;;;;21.50;7.35;;;;;;;1.04;86.62;100317.50;1674937;85;21023;-37
2022/01/19 04:02:06;;;;;;;17.02;6.65;;;;;;;1.06;86.48;100309.30;1674880;84;21019;-37
2022/01/19 04:07:09;;;;;;;20.43;7.10;;;;;;;1.12;86.72;100304.95;1674734;85;20980;-37
2022/01/19 04:09:39;;;;;;;15.78;6.80;;;;;;;1.13;86.78;100302.81;1674681;84;21036;-37
2022/01/19 04:12:08;;;;;;;17.70;6.40;;;;;;;1.19;86.69;100302.38;1674713;84;21044;-36
2022/01/19 04:14:34;;;;;;;20.62;7.00;;;;;;;1.20;86.70;100288.55;1674698;85;20999;-37
2022/01/19 04:17:10;;;;;;;16.17;6.75;;;;;;;1.21;86.85;100288.98;1674741;85;20976;-37
2022/01/19 04:22:13;;;;;;;18.37;7.42;;;;;;;1.22;86.86;100272.55;1674702;84;21005;-39
2022/01/19 04:24:41;;;;;;;21.25;8.20;;;;;;;1.22;87.01;100282.92;1674807;84;21051;-38
2022/01/19 04:29:58;;;;;;;17.40;6.65;;;;;;;1.15;87.27;100271.28;1674870;84;21064;-37
2022/01/19 04:32:34;;;;;;;31.02;7.95;;;;;;;1.15;87.30;100271.28;1674008;85;21031;-38
2022/01/19 04:34:51;;;;;;;14.73;7.05;;;;;;;1.20;87.28;100263.92;1672010;85;21079;-38
2022/01/19 05:04:09;;;;;;;23.18;8.70;;;;;;;1.30;86.86;100235.84;1706418;84;21001;-38
2022/01/19 05:06:30;;;;;;;24.50;9.03;;;;;;;1.28;86.83;100226.78;1705312;83;21590;-38
2022/01/19 05:09:26;;;;;;;;;;;;;;;1.31;86.81;100229.78;1708892;84;20989;-38
2022/01/19 05:14:22;;;;;;;20.80;8.23;;;;;;;1.30;86.83;100220.30;1706351;84;21021;-38
2022/01/19 05:16:48;;;;;;;25.88;8.75;;;;;;;1.30;86.66;100225.04;1706543;83;21013;-38
2022/01/19 05:19:14;;;;;;;22.13;8.95;;;;;;;1.25;86.95;100218.14;1706630;83;20973;-38
2022/01/19 05:21:39;;;;;;;20.95;9.28;;;;;;;1.32;86.90;100214.67;1706551;83;21000;-38
2022/01/19 05:24:07;;;;;;;19.30;8.15;;;;;;;1.36;86.68;100221.56;1706501;84;21005;-38
2022/01/19 05:26:35;;;;;;;17.27;7.90;;;;;;;1.38;86.50;100225.02;1706614;83;21012;-38
2022/01/19 05:29:01;;;;;;;17.40;8.83;;;;;;;1.39;86.52;100221.56;1706324;83;21503;-38
2022/01/19 05:31:27;;;;;;;24.18;8.65;;;;;;;1.41;86.51;100215.94;1706501;83;20969;-38
2022/01/19 05:33:54;;;;;;;18.02;8.28;;;;;;;1.44;86.51;100213.34;1706517;83;21053;-38
2022/01/19 05:36:20;;;;;;;19.67;8.43;;;;;;;1.43;86.58;100212.91;1706553;84;21013;-38
2022/01/19 05:38:45;;;;;;;20.88;8.58;;;;;;;1.43;86.51;100209.02;1706437;84;21001;-38
2022/01/19 05:41:11;;;;;;;23.87;9.20;;;;;;;1.47;86.48;100217.20;1706404;84;21013;-38
2022/01/19 05:43:37;;;;;;;18.92;8.73;;;;;;;1.43;86.64;100206.42;1695007;83;21045;-38
2022/01/19 05:46:03;;;;;;;24.12;9.53;;;;;;;1.49;86.36;100210.72;1692001;85;21150;-38
2022/01/19 05:48:29;;;;;;;21.77;10.05;;;;;;;1.50;86.36;100206.83;1691984;82;21008;-38
2022/01/19 05:50:55;;;;;;;19.17;9.00;;;;;;;1.49;86.24;100203.84;1692066;82;21517;-38
2022/01/19 05:53:21;;;;;;;19.67;8.93;;;;;;;1.51;86.29;100208.98;1691971;85;21004;-38
2022/01/19 05:55:47;;;;;;;20.15;9.15;;;;;;;1.50;86.21;100208.58;1691950;82;21024;-38
2022/01/19 05:58:13;;;;;;;22.40;8.78;;;;;;;1.50;86.33;100207.28;1691598;82;21056;-38
2022/01/19 06:00:39;;;;;;;17.15;8.75;;;;;;;1.48;86.45;100204.69;1691923;85;21013;-37
2022/01/19 06:03:05;;;;;;;20.37;8.60;;;;;;;1.50;86.52;100198.20;1691966;85;21020;-38
2022/01/19 06:05:33;;;;;;;22.45;9.75;;;;;;;1.53;86.49;100195.61;1691947;82;21001;-38
2022/01/19 06:10:44;;;;;;;17.42;8.80;;;;;;;1.56;86.43;100199.91;1634624;88;21142;-37
2022/01/19 06:13:14;;;;;;;24.10;9.65;;;;;;;1.51;86.48;100196.91;1634876;87;21526;-38
2022/01/19 06:15:40;;;;;;;18.25;9.18;;;;;;;1.54;86.54;100197.32;1634955;86;21706;-38
2022/01/19 06:18:06;;;;;;;24.40;8.95;;;;;;;1.54;86.78;100189.54;1635047;88;21073;-38
2022/01/19 06:20:32;;;;;;;24.25;9.63;;;;;;;1.60;86.50;100187.35;1635006;88;21033;-38
2022/01/19 06:22:58;;;;;;;23.75;9.60;;;;;;;1.65;86.43;100183.02;1634994;88;21186;-39
2022/01/19 06:25:24;;;;;;;22.07;9.78;;;;;;;1.61;86.45;100171.80;1635112;88;21045;-38
2022/01/19 06:27:49;;;;;;;21.05;9.95;;;;;;;1.66;86.27;100171.79;1635079;88;21033;-38
2022/01/19 06:30:15;;;;;;;18.05;10.15;;;;;;;1.63;86.46;100162.28;1635039;88;21595;-38
2022/01/19 06:32:41;;;;;;;25.35;10.05;;;;;;;1.59;86.68;100151.95;1635043;88;21469;-38
2022/01/19 06:35:09;;;;;;;21.52;10.03;;;;;;;1.67;86.50;100148.86;1635025;88;21077;-38
2022/01/19 06:37:35;;;;;;;;;;;;;;;1.70;86.28;100146.27;1637446;88;21069;-38
2022/01/19 06:40:04;;;;;;;26.40;10.75;;;;;;;1.69;86.38;100145.82;1635093;88;20164;-38
2022/01/19 06:42:30;;;;;;;20.30;10.40;;;;;;;1.66;86.44;100146.71;1634882;87;21603;-38
2022/01/19 06:44:55;;;;;;;25.08;11.22;;;;;;;1.63;86.63;100144.57;1634559;88;21060;-38
2022/01/19 06:47:21;;;;;;;23.90;10.10;;;;;;;1.63;86.83;100140.68;1702755;83;21000;-38
2022/01/19 06:49:47;;;;;;;22.90;10.72;;;;;;;1.66;86.95;100141.97;1716339;83;21007;-38
2022/01/19 06:52:13;;;;;;;24.57;10.38;;;;;;;1.65;86.88;100138.50;1716299;83;21005;-38
2022/01/19 06:54:39;;;;;;;23.22;10.58;;;;;;;1.73;86.93;100138.48;1716536;83;20999;-38
2022/01/19 06:57:05;;;;;;;22.70;10.90;;;;;;;1.76;86.66;100131.10;1716415;83;21489;-38
2022/01/19 06:59:31;;;;;;;24.23;10.90;;;;;;;1.79;86.62;100129.35;1716341;83;21056;-38
2022/01/19 07:01:56;;;;;;;19.45;10.25;;;;;;;1.81;86.60;100126.31;1716300;83;20993;-38
2022/01/19 07:04:22;;;;;;;24.55;9.73;;;;;;;1.85;86.47;100128.45;1716395;83;21505;-38
2022/01/19 07:06:48;;;;;;;21.02;9.85;;;;;;;1.89;86.55;100122.36;1716252;83;21017;-38
2022/01/19 07:09:14;;;;;;;20.40;10.18;;;;;;;1.88;86.42;100117.63;1716275;83;21060;-37
2022/01/19 07:11:40;;;;;;;26.77;11.60;;;;;;;1.87;86.43;100119.81;1716403;83;21012;-37
2022/01/19 07:14:08;;;;;;;22.87;10.95;;;;;;;1.89;86.54;100115.47;1716341;83;21017;-38
2022/01/19 07:16:34;;;;;;;26.25;11.00;;;;;;;1.92;86.60;100114.13;1716240;83;20997;-38
2022/01/19 07:19:00;;;;;;;25.65;11.30;;;;;;;1.90;86.47;100106.80;1716321;83;21009;-38
2022/01/19 07:21:26;;;;;;;32.05;12.30;;;;;;;1.89;86.52;100099.91;1716274;83;21487;-38
2022/01/19 07:23:52;;;;;;;22.85;12.23;;;;;;;1.92;86.47;100109.38;1716311;83;20984;-38
2022/01/19 07:26:18;;;;;;;25.10;11.00;;;;;;;1.95;86.51;100092.52;1716323;83;21005;-38
2022/01/19 07:28:44;;;;;;;23.22;11.18;;;;;;;1.96;86.64;100090.77;1716351;83;20969;-38
2022/01/19 07:31:09;;;;;;;21.90;11.00;;;;;;;1.96;86.59;100092.92;1716400;83;21032;-38
2022/01/19 07:33:36;;;;;;;31.15;12.30;;;;;;;1.97;86.68;100088.17;1716363;83;21509;-38
2022/01/19 07:36:02;;;;;;;23.73;10.82;;;;;;;2.00;86.60;100089.45;1716299;83;21047;-38
2022/01/19 07:38:28;;;;;;;27.32;10.43;;;;;;;2.03;86.57;100085.96;1716559;83;21005;-38
2022/01/19 07:40:55;;;;;;;25.08;11.85;;;;;;;2.03;86.68;100081.63;1716322;83;21020;-38
2022/01/19 07:43:21;;;;;;;22.35;10.32;;;;;;;2.06;86.61;100070.38;1697375;83;21083;-38
2022/01/19 07:45:46;;;;;;;23.38;12.35;;;;;;;2.04;86.65;100075.58;1675296;84;20988;-38
2022/01/19 07:48:12;;;;;;;25.62;11.53;;;;;;;1.96;86.89;100072.61;1674652;86;21056;-38
2022/01/19 07:50:39;;;;;;;20.17;9.80;;;;;;;2.07;86.73;100069.48;1674701;84;21494;-37
2022/01/19 07:53:06;;;;;;;26.73;13.35;;;;;;;2.13;86.59;100074.65;1675953;84;21055;-38
2022/01/19 07:55:32;;;;;;;26.67;10.80;;;;;;;2.13;86.84;100059.49;1674984;84;20996;-38
2022/01/19 07:57:58;;;;;;;37.17;15.08;;;;;;;2.15;86.80;100065.52;1674973;85;21371;-38
2022/01/19 08:00:24;;;;;;;27.82;11.53;;;;;;;2.12;86.70;100056.05;1674880;85;21476;-39
2022/01/19 08:02:50;;;;;;;25.50;10.98;;;;;;;2.20;86.67;100062.05;1674881;84;21600;-38
2022/01/19 08:05:17;;;;;;;26.45;11.83;;;;;;;2.24;86.58;100054.65;1674827;84;21019;-38
2022/01/19 08:07:44;;;;;;;28.00;12.40;;;;;;;2.18;86.49;100063.77;1674938;84;20980;-38
2022/01/19 08:10:11;;;;;;;33.45;13.70;;;;;;;2.22;86.50;100060.30;1654036;85;21052;-38
2022/01/19 08:12:37;;;;;;;25.40;11.65;;;;;;;2.19;86.70;100060.31;1674796;85;21060;-38
2022/01/19 08:15:05;;;;;;;30.12;13.60;;;;;;;2.25;86.46;100062.84;1675149;84;21668;-38
2022/01/19 08:17:31;;;;;;;;;;;;;;;2.21;86.43;100055.11;1677380;84;21011;-38
2022/01/19 08:19:57;;;;;;;26.57;12.35;;;;;;;2.18;86.66;100054.69;1674981;84;20408;-38
2022/01/19 08:22:23;;;;;;;26.68;11.45;;;;;;;2.24;86.50;100049.91;1676092;84;21047;-37
2022/01/19 08:24:50;;;;;;;23.10;11.97;;;;;;;2.27;86.35;100055.93;1674782;85;21052;-38
2022/01/19 08:27:17;;;;;;;24.67;13.30;;;;;;;2.20;86.70;100069.83;1675098;84;21875;-37
2022/01/19 08:29:44;;;;;;;31.57;16.12;;;;;;;2.25;86.38;100052.45;1674985;84;21055;-37
2022/01/19 08:32:10;;;;;;;24.67;12.85;;;;;;;2.24;86.40;100044.27;1674833;84;21027;-37
2022/01/19 08:34:36;;;;;;;30.00;13.70;;;;;;;2.27;86.24;100049.44;1674980;85;21020;-37
2022/01/19 08:37:03;;;;;;;29.65;13.98;;;;;;;2.25;86.54;100055.05;1674792;86;20980;-38
2022/01/19 08:39:28;;;;;;;31.40;14.07;;;;;;;2.23;86.53;100046.42;1674927;84;21016;-38
2022/01/19 08:41:54;;;;;;;24.32;13.05;;;;;;;2.30;86.31;100048.09;1674710;86;21048;-38
2022/01/19 08:44:22;;;;;;;41.70;18.23;;;;;;;2.30;86.31;100033.81;1688336;85;21043;-37
2022/01/19 08:46:48;;;;;;;31.65;14.35;;;;;;;2.28;86.41;100022.59;1692599;83;20979;-37
2022/01/19 08:49:15;;;;;;;24.60;14.07;;;;;;;2.34;86.29;100023.41;1692758;84;20991;-37
2022/01/19 08:51:41;;;;;;;40.25;18.48;;;;;;;2.32;86.03;100016.94;1692620;85;21504;-37
2022/01/19 08:54:07;;;;;;;30.70;15.45;;;;;;;2.23;86.50;100011.39;1692509;85;21076;-38
2022/01/19 08:56:35;;;;;;;36.40;14.40;;;;;;;2.33;86.40;100004.81;1692529;85;21476;-38
2022/01/19 08:59:01;;;;;;;30.05;15.85;;;;;;;2.33;86.42;100001.80;1692468;83;21027;-38
2022/01/19 09:01:27;;;;;;;25.70;14.07;;;;;;;2.32;86.36;100006.55;1692433;84;21003;-38
2022/01/19 09:03:52;;;;;;;31.90;15.18;;;;;;;2.38;86.27;100003.88;1692780;83;21515;-38
2022/01/19 09:06:20;;;;;;;30.57;14.73;;;;;;;2.24;86.52;100010.98;1692473;85;21003;-38
2022/01/19 09:08:46;;;;;;;38.35;16.40;;;;;;;2.34;86.25;100007.84;1692578;83;20979;-38
2022/01/19 09:11:12;;;;;;;24.10;13.15;;;;;;;2.37;86.15;100007.82;1692518;85;21515;-38
2022/01/19 09:13:38;;;;;;;25.45;12.65;;;;;;;2.32;86.18;100003.11;1692513;83;21532;-38
2022/01/19 09:16:06;;;;;;;47.87;16.67;;;;;;;2.23;86.12;100003.61;1692515;83;20998;-38
2022/01/19 09:18:32;;;;;;;38.38;15.23;;;;;;;2.27;86.38;100007.03;1692594;83;20987;-38
2022/01/19 09:20:57;;;;;;;35.08;15.15;;;;;;;2.17;86.76;100004.13;1692546;83;21027;-37
2022/01/19 09:23:23;;;;;;;26.00;14.05;;;;;;;2.25;86.58;99997.96;1692539;85;21520;-38
2022/01/19 09:25:49;;;;;;;33.13;15.03;;;;;;;2.27;86.44;100000.13;1692692;83;21054;-38
2022/01/19 09:28:15;;;;;;;34.73;15.08;;;;;;;2.18;86.62;100021.39;1692452;85;21048;-37
2022/01/19 09:30:41;;;;;;;29.42;15.95;;;;;;;2.21;86.47;100011.84;1692456;83;21074;-37
2022/01/19 09:33:11;;;;;;;30.82;14.13;;;;;;;2.23;86.62;100015.73;1692511;85;21631;-38
2022/01/19 09:38:35;;;;;;;24.20;15.20;;;;;;;2.27;86.51;100005.32;1692420;85;21441;-38
2022/01/19 09:41:03;;;;;;;25.05;13.85;;;;;;;2.21;86.58;100011.84;1692385;83;21019;-42
2022/01/19 09:43:29;;;;;;;22.30;12.60;;;;;;;2.27;86.42;100003.14;1687251;84;21051;-38
2022/01/19 09:45:58;;;;;;;27.95;14.05;;;;;;;2.24;86.54;99997.55;1674512;86;21019;-38
2022/01/19 09:48:25;;;;;;;29.77;14.98;;;;;;;2.20;86.67;99994.99;1674443;86;21512;-38
2022/01/19 09:50:54;;;;;;;33.48;15.45;;;;;;;2.20;86.52;99984.61;1674535;86;21057;-39
2022/01/19 09:53:20;;;;;;;27.40;13.70;;;;;;;2.20;86.58;99982.90;1674548;86;21015;-39
2022/01/19 09:55:47;;;;;;;26.45;14.63;;;;;;;2.29;86.39;99976.73;1674627;85;21047;-39
2022/01/19 09:58:16;;;;;;;31.95;14.25;;;;;;;2.21;86.36;99965.14;1674747;85;21009;-38
2022/01/19 10:00:41;;;;;;;22.77;13.00;;;;;;;2.19;86.57;99951.32;1674566;85;21573;-38
2022/01/19 10:03:16;;;;;;;28.20;12.88;;;;;;;2.20;86.50;99956.95;1674564;85;21015;-38
2022/01/19 10:06:10;;;;;;;25.72;13.48;;;;;;;2.15;86.34;99953.53;1672142;85;21481;-38
2022/01/19 10:08:45;;;;;;;23.18;13.18;;;;;;;2.29;86.17;99952.07;1674570;85;20984;-38
2022/01/19 10:17:03;;;;;;;29.50;14.20;;;;;;;2.32;86.27;99938.22;1674781;86;21011;-38
2022/01/19 10:19:45;;;;;;;28.77;14.95;;;;;;;2.32;86.05;99936.92;1673616;86;21563;-39
2022/01/19 10:22:25;;;;;;;25.37;13.58;;;;;;;2.32;86.02;99923.50;1653983;86;21657;-37
2022/01/19 10:25:02;;;;;;;28.87;14.00;;;;;;;2.39;85.91;99929.48;1663207;84;21028;-37
2022/01/19 10:27:45;;;;;;;26.87;15.10;;;;;;;2.35;85.94;99931.27;1674901;84;21045;-38
2022/01/19 10:30:19;;;;;;;36.15;16.27;;;;;;;2.28;85.74;99925.27;1672514;84;21059;-37
2022/01/19 10:32:56;;;;;;;29.45;13.72;;;;;;;2.30;85.83;99914.88;1676395;84;21126;-36
2022/01/19 10:35:36;;;;;;;24.75;13.85;;;;;;;2.35;85.96;99914.39;1681778;85;21012;-37
2022/01/19 10:38:27;;;;;;;28.70;14.40;;;;;;;2.35;85.88;99916.98;1682362;85;21071;-37
2022/01/19 10:41:04;;;;;;;26.00;13.95;;;;;;;2.43;85.88;99905.20;1681934;85;21125;-36
2022/01/19 10:43:42;;;;;;;;;;;;;;;2.46;85.51;99901.28;1685872;83;21095;-36
2022/01/19 10:46:30;;;;;;;25.77;13.05;;;;;;;2.43;85.53;99900.02;1685412;85;20402;-38
2022/01/19 10:49:00;;;;;;;23.42;13.75;;;;;;;2.39;85.44;99892.70;1684120;85;21078;-36
2022/01/19 10:51:39;;;;;;;21.97;13.62;;;;;;;2.45;85.34;99891.77;1684103;85;21576;-37
2022/01/19 10:54:21;;;;;;;25.43;13.75;;;;;;;2.45;85.19;99891.77;1685097;85;20975;-37
2022/01/19 10:56:54;;;;;;;22.05;12.50;;;;;;;2.40;85.33;99887.06;1685496;85;21090;-38
2022/01/19 10:59:27;;;;;;;22.93;13.03;;;;;;;2.39;85.37;99872.38;1684117;85;21555;-38
2022/01/19 11:01:58;;;;;;;29.12;13.83;;;;;;;2.40;85.31;99874.08;1684175;85;21030;-36
2022/01/19 11:04:33;;;;;;;27.40;12.50;;;;;;;2.43;85.29;99874.91;1685144;85;21077;-37
2022/01/19 11:07:06;;;;;;;22.07;12.75;;;;;;;2.42;85.64;99873.20;1684728;85;21018;-36
2022/01/19 11:09:43;;;;;;;25.27;13.75;;;;;;;2.35;85.47;99870.68;1685243;85;21046;-37
2022/01/19 11:12:11;;;;;;;23.77;12.95;;;;;;;2.36;85.40;99871.11;1683317;84;21094;-37
2022/01/19 11:14:37;;;;;;;23.38;13.13;;;;;;;2.41;85.14;99866.73;1684272;85;21105;-37
2022/01/19 11:17:04;;;;;;;;;;;;;;;2.47;85.31;99856.25;1686991;85;21578;-38
2022/01/19 11:19:31;;;;;;;27.93;13.28;;;;;;;2.43;85.15;99848.95;1684372;85;20122;-37
2022/01/19 11:22:37;;;;;;;27.40;13.85;;;;;;;2.46;85.11;99845.47;1684786;85;21638;-37
2022/01/19 11:25:33;;;;;;;22.25;13.50;;;;;;;2.44;85.02;99843.34;1685512;85;21207;-37
2022/01/19 11:28:00;;;;;;;30.17;14.50;;;;;;;2.45;85.26;99838.55;1684190;85;21019;-38
2022/01/19 11:30:33;;;;;;;26.57;14.05;;;;;;;2.48;85.10;99830.28;1684399;85;21590;-38
2022/01/19 11:33:24;;;;;;;32.00;15.55;;;;;;;2.56;85.08;99824.13;1684384;85;21035;-37
2022/01/19 11:35:54;;;;;;;25.27;15.15;;;;;;;2.47;85.15;99825.10;1683575;85;21569;-37
2022/01/19 11:38:40;;;;;;;25.32;15.83;;;;;;;2.51;84.99;99811.22;1684293;85;21151;-37
2022/01/19 11:41:14;;;;;;;28.10;15.25;;;;;;;2.51;84.96;99800.84;1668658;85;21070;-37
2022/01/19 11:43:57;;;;;;;26.73;14.98;;;;;;;2.46;85.20;99795.70;1688404;83;21154;-37
2022/01/19 11:46:34;;;;;;;33.78;13.98;;;;;;;2.60;85.09;99792.91;1714678;84;21066;-37
2022/01/19 11:49:02;;;;;;;;;;;;;;;2.60;84.89;99791.62;1713218;83;21087;-37
2022/01/19 11:51:36;;;;;;;24.92;14.15;;;;;;;2.57;84.32;99779.12;1715201;84;20141;-36
2022/01/19 11:54:17;;;;;;;22.48;13.05;;;;;;;2.53;84.50;99782.20;1714118;83;20995;-38
2022/01/19 11:57:08;;;;;;;24.50;13.80;;;;;;;2.50;84.59;99775.74;1714606;84;21721;-38
2022/01/19 11:59:57;;;;;;;20.48;12.78;;;;;;;2.57;84.68;99768.28;1714362;84;21500;-39
2022/01/19 12:02:36;;;;;;;20.32;12.70;;;;;;;2.64;84.37;99765.16;1715437;84;21031;-38
2022/01/19 12:05:12;;;;;;;28.30;15.75;;;;;;;2.63;84.28;99750.45;1714180;82;21162;-38
2022/01/19 12:07:48;;;;;;;29.60;15.18;;;;;;;2.64;84.38;99749.14;1714411;83;22151;-39
2022/01/19 12:10:32;;;;;;;25.90;14.25;;;;;;;2.69;84.26;99732.16;1715077;84;21529;-36
2022/01/19 12:13:34;;;;;;;24.92;14.05;;;;;;;2.65;84.11;99735.25;1714617;84;21042;-37
2022/01/19 12:16:27;;;;;;;22.90;13.22;;;;;;;2.67;84.02;99738.71;1714803;83;21000;-39
2022/01/19 12:18:51;;;;;;;26.82;13.68;;;;;;;2.62;83.58;99726.23;1712600;83;21043;-37
2022/01/19 12:21:37;;;;;;;26.27;14.35;;;;;;;2.65;83.67;99718.82;1715568;84;21003;-38
2022/01/19 12:24:32;;;;;;;26.68;15.72;;;;;;;2.60;83.73;99715.02;1715511;84;20960;-39
2022/01/19 12:27:09;;;;;;;28.70;15.43;;;;;;;2.64;83.73;99712.78;1715469;84;21015;-38
2022/01/19 12:29:37;;;;;;;;;;;;;;;2.62;83.58;99713.25;1718048;84;20983;-38
2022/01/19 12:32:20;;;;;;;;;;;;;;;2.63;83.57;99706.31;1718110;84;20117;-38
2022/01/19 12:34:56;;;;;;;;;;;;;;;2.55;83.23;99706.86;1718076;84;20140;-38
2022/01/19 12:37:29;;;;;;;;;;;;;;;2.56;83.33;99704.69;1718065;84;20106;-38
2022/01/19 12:39:55;;;;;;;;;;;;;;;2.56;83.40;99696.91;1718061;84;20181;-37
2022/01/19 12:42:30;;;;;;;;;;;;;;;2.58;83.28;99695.14;1723563;82;20114;-38
2022/01/19 12:44:57;;;;;;;;;;;;;;;2.46;83.31;99693.16;1737989;81;20126;-38
2022/01/19 12:47:32;;;;;;;;;;;;;;;2.45;83.30;99685.39;1747487;81;20114;-37
2022/01/19 12:50:09;;;;;;;;;;;;;;;2.47;83.46;99687.09;1746194;82;20487;-39
2022/01/19 12:52:40;;;;;;;;;;;;;;;2.45;83.52;99682.80;1747776;82;20119;-40
2022/01/19 12:55:13;;;;;;;;;;;;;;;2.46;83.67;99684.52;1746803;82;20099;-37
2022/01/19 12:57:38;;;;;;;;;;;;;;;2.49;83.59;99679.27;1747645;82;20157;-37
2022/01/19 13:00:07;;;;;;;;;;;;;;;2.44;83.47;99676.75;1747959;82;20130;-38
2022/01/19 13:02:33;;;;;;;;;;;;;;;2.39;83.57;99664.73;1747857;82;20106;-38
2022/01/19 13:05:08;;;;;;;;;;;;;;;2.39;83.58;99660.39;1747741;81;20115;-40
2022/01/19 13:07:39;;;;;;;;;;;;;;;2.49;83.75;99657.19;1747887;81;20690;-37
2022/01/19 13:10:24;;;;;;;;;;;;;;;2.41;83.65;99662.52;1747861;82;20146;-37
2022/01/19 13:12:56;;;;;;;;;;;;;;;2.40;83.55;99663.84;1747226;82;20103;-38
2022/01/19 13:15:18;;;;;;;;;;;;;;;2.40;83.65;99670.33;1747689;82;20107;-38